This is the latest recevied weather packets stored in our database for station/object IV3CVE-H1. If no packets are shown the sender has not sent any weather packets the latest 10 day(s).
| Time | Temp. | Humidity | Pressure | Rain* | Wind** | Luminosity | Snow |
|---|---|---|---|---|---|---|---|
| 1777262116 | 15° C | 51% | 1016.7 hPa | 0 mm | - | - | - |
| 1777261516 | 15° C | 51% | 1016.8 hPa | 0 mm | - | - | - |
| 1777260916 | 15.56° C | 51% | 1016.7 hPa | 0 mm | - | - | - |
| 1777259716 | 15.56° C | 51% | 1016.7 hPa | 0 mm | - | - | - |
| 1777257918 | 16.11° C | 51% | 1016.6 hPa | 0 mm | - | - | - |
| 1777257317 | 16.11° C | 52% | 1016.6 hPa | 0 mm | - | - | - |
| 1777255537 | 15.56° C | 56% | 1016.7 hPa | 0 mm | - | - | - |
| 1777245917 | 13.89° C | 83% | 1016.5 hPa | 0 mm | - | - | - |
| 1777242915 | 14.44° C | 86% | 1016.3 hPa | 0 mm | - | - | - |
| 1777242318 | 14.44° C | 87% | 1016.3 hPa | 0 mm | - | - | - |
| 1777241738 | 14.44° C | 88% | 1016.2 hPa | 0 mm | - | - | - |
| 1777236916 | 15° C | 88% | 1015.9 hPa | 0 mm | - | - | - |
| 1777233316 | 16.67° C | 83% | 1015.6 hPa | 0 mm | - | - | - |
| 1777229117 | 18.89° C | 65% | 1014.8 hPa | 0 mm | - | - | - |
| 1777219517 | 27.22° C | 38% | 1014 hPa | 0 mm | - | - | - |
| 1777207537 | 27.22° C | 42% | 1014.8 hPa | 0 mm | - | - | - |
| 1777205718 | 26.11° C | 44% | 1014.9 hPa | 0 mm | - | - | - |
| 1777204538 | 26.11° C | 43% | 1015.1 hPa | 0 mm | - | - | - |
| 1777203917 | 26.11° C | 44% | 1015.1 hPa | 0 mm | - | - | - |
| 1777203337 | 26.11° C | 41% | 1015.2 hPa | 0 mm | - | - | - |
| 1777201516 | 25° C | 45% | 1015.4 hPa | 0 mm | - | - | - |
| 1777198517 | 24.44° C | 45% | 1015.4 hPa | 0 mm | - | - | - |
| 1777188318 | 18.33° C | 58% | 1014.8 hPa | 0 mm | - | - | - |
| 1777186517 | 17.22° C | 70% | 1014.7 hPa | 0 mm | - | - | - |
* Rain latest hour (hover to see other rain measurements)
** Current wind speed in m/s (hover to see current wind gust speed)